sensor_id;sensor_type;location;lat;lon;timestamp;temperature;humidity
17483;DHT22;8858;52.308;20.994;2022-10-22T00:02:26;9.80;99.90
17483;DHT22;8858;52.308;20.994;2022-10-22T00:04:54;9.80;99.90
17483;DHT22;8858;52.308;20.994;2022-10-22T00:07:24;9.80;99.90
17483;DHT22;8858;52.308;20.994;2022-10-22T00:09:55;9.80;99.90
17483;DHT22;8858;52.308;20.994;2022-10-22T00:12:23;9.80;99.90
17483;DHT22;8858;52.308;20.994;2022-10-22T00:14:54;9.80;99.90
17483;DHT22;8858;52.308;20.994;2022-10-22T00:17:23;9.80;99.90
17483;DHT22;8858;52.308;20.994;2022-10-22T00:19:51;9.80;99.90
17483;DHT22;8858;52.308;20.994;2022-10-22T00:22:20;9.80;99.90
17483;DHT22;8858;52.308;20.994;2022-10-22T00:24:51;9.80;99.90
17483;DHT22;8858;52.308;20.994;2022-10-22T00:27:23;9.80;99.90
17483;DHT22;8858;52.308;20.994;2022-10-22T00:29:52;9.90;99.90
17483;DHT22;8858;52.308;20.994;2022-10-22T00:32:21;9.90;99.90
17483;DHT22;8858;52.308;20.994;2022-10-22T00:34:50;9.90;99.90
17483;DHT22;8858;52.308;20.994;2022-10-22T00:37:19;9.90;99.90
17483;DHT22;8858;52.308;20.994;2022-10-22T00:39:50;9.90;99.90
17483;DHT22;8858;52.308;20.994;2022-10-22T00:42:21;9.90;99.90
17483;DHT22;8858;52.308;20.994;2022-10-22T00:45:13;9.90;99.90
17483;DHT22;8858;52.308;20.994;2022-10-22T00:47:45;9.90;99.90
17483;DHT22;8858;52.308;20.994;2022-10-22T00:50:19;10.00;99.90
17483;DHT22;8858;52.308;20.994;2022-10-22T00:52:49;10.00;99.90
17483;DHT22;8858;52.308;20.994;2022-10-22T00:55:19;9.90;99.90
17483;DHT22;8858;52.308;20.994;2022-10-22T00:57:51;9.90;99.90
17483;DHT22;8858;52.308;20.994;2022-10-22T01:00:27;9.90;99.90
17483;DHT22;8858;52.308;20.994;2022-10-22T01:02:58;9.90;99.90
17483;DHT22;8858;52.308;20.994;2022-10-22T01:05:40;9.90;99.90
17483;DHT22;8858;52.308;20.994;2022-10-22T01:08:17;9.90;99.90
17483;DHT22;8858;52.308;20.994;2022-10-22T01:10:58;9.90;99.90
17483;DHT22;8858;52.308;20.994;2022-10-22T01:13:42;9.90;99.90
17483;DHT22;8858;52.308;20.994;2022-10-22T01:16:20;9.90;99.90
17483;DHT22;8858;52.308;20.994;2022-10-22T01:18:55;9.90;99.90
17483;DHT22;8858;52.308;20.994;2022-10-22T01:21:31;9.90;99.90
17483;DHT22;8858;52.308;20.994;2022-10-22T01:27:11;9.90;99.90
17483;DHT22;8858;52.308;20.994;2022-10-22T01:29:46;9.90;99.90
17483;DHT22;8858;52.308;20.994;2022-10-22T01:32:22;9.90;99.90
17483;DHT22;8858;52.308;20.994;2022-10-22T01:34:55;9.90;99.90
17483;DHT22;8858;52.308;20.994;2022-10-22T01:37:30;10.00;99.90
17483;DHT22;8858;52.308;20.994;2022-10-22T01:40:01;9.90;99.90
17483;DHT22;8858;52.308;20.994;2022-10-22T01:42:32;10.00;99.90
17483;DHT22;8858;52.308;20.994;2022-10-22T01:45:10;10.00;99.90
17483;DHT22;8858;52.308;20.994;2022-10-22T01:47:50;10.00;99.90
17483;DHT22;8858;52.308;20.994;2022-10-22T01:50:34;10.00;99.90
17483;DHT22;8858;52.308;20.994;2022-10-22T01:53:18;10.00;99.90
17483;DHT22;8858;52.308;20.994;2022-10-22T01:56:00;10.00;99.90
17483;DHT22;8858;52.308;20.994;2022-10-22T01:58:39;10.00;99.90
17483;DHT22;8858;52.308;20.994;2022-10-22T02:01:22;10.00;99.90
17483;DHT22;8858;52.308;20.994;2022-10-22T02:04:00;10.10;99.90
17483;DHT22;8858;52.308;20.994;2022-10-22T02:06:31;10.10;99.90
17483;DHT22;8858;52.308;20.994;2022-10-22T02:09:01;10.10;99.90
17483;DHT22;8858;52.308;20.994;2022-10-22T02:11:31;10.10;99.90
17483;DHT22;8858;52.308;20.994;2022-10-22T02:14:02;10.10;99.90
17483;DHT22;8858;52.308;20.994;2022-10-22T02:16:35;10.10;99.90
17483;DHT22;8858;52.308;20.994;2022-10-22T02:19:09;10.10;99.90
17483;DHT22;8858;52.308;20.994;2022-10-22T02:21:44;10.10;99.90
17483;DHT22;8858;52.308;20.994;2022-10-22T02:24:13;10.10;99.90
17483;DHT22;8858;52.308;20.994;2022-10-22T02:26:46;10.10;99.90
17483;DHT22;8858;52.308;20.994;2022-10-22T02:29:24;10.10;99.90
17483;DHT22;8858;52.308;20.994;2022-10-22T02:31:57;10.10;99.90
17483;DHT22;8858;52.308;20.994;2022-10-22T02:34:30;10.10;99.90
17483;DHT22;8858;52.308;20.994;2022-10-22T02:37:00;10.10;99.90
17483;DHT22;8858;52.308;20.994;2022-10-22T02:39:30;10.10;99.90
17483;DHT22;8858;52.308;20.994;2022-10-22T02:42:00;10.10;99.90
17483;DHT22;8858;52.308;20.994;2022-10-22T02:44:30;10.10;99.90
17483;DHT22;8858;52.308;20.994;2022-10-22T02:47:00;10.10;99.90
17483;DHT22;8858;52.308;20.994;2022-10-22T02:49:28;10.10;99.90
17483;DHT22;8858;52.308;20.994;2022-10-22T02:51:57;10.10;99.90
17483;DHT22;8858;52.308;20.994;2022-10-22T02:54:27;10.10;99.90
17483;DHT22;8858;52.308;20.994;2022-10-22T02:57:22;10.10;99.90
17483;DHT22;8858;52.308;20.994;2022-10-22T02:59:50;10.10;99.90
17483;DHT22;8858;52.308;20.994;2022-10-22T03:02:21;10.10;99.90
17483;DHT22;8858;52.308;20.994;2022-10-22T03:04:49;10.10;99.90
17483;DHT22;8858;52.308;20.994;2022-10-22T03:07:18;10.10;99.90
17483;DHT22;8858;52.308;20.994;2022-10-22T03:09:51;10.10;99.90
17483;DHT22;8858;52.308;20.994;2022-10-22T03:12:46;10.10;99.90
17483;DHT22;8858;52.308;20.994;2022-10-22T03:15:14;10.00;99.90
17483;DHT22;8858;52.308;20.994;2022-10-22T03:17:44;10.10;99.90
17483;DHT22;8858;52.308;20.994;2022-10-22T03:20:12;10.00;99.90
17483;DHT22;8858;52.308;20.994;2022-10-22T03:22:41;10.00;99.90
17483;DHT22;8858;52.308;20.994;2022-10-22T03:25:16;10.00;99.90
17483;DHT22;8858;52.308;20.994;2022-10-22T03:27:47;10.00;99.90
17483;DHT22;8858;52.308;20.994;2022-10-22T03:30:17;10.10;99.90
17483;DHT22;8858;52.308;20.994;2022-10-22T03:32:47;10.00;99.90
17483;DHT22;8858;52.308;20.994;2022-10-22T03:35:15;10.10;99.90
17483;DHT22;8858;52.308;20.994;2022-10-22T03:37:44;10.10;99.90
17483;DHT22;8858;52.308;20.994;2022-10-22T03:40:14;10.10;99.90
17483;DHT22;8858;52.308;20.994;2022-10-22T03:42:43;10.10;99.90
17483;DHT22;8858;52.308;20.994;2022-10-22T03:45:11;10.10;99.90
17483;DHT22;8858;52.308;20.994;2022-10-22T03:47:39;10.10;99.90
17483;DHT22;8858;52.308;20.994;2022-10-22T03:50:32;10.10;99.90
17483;DHT22;8858;52.308;20.994;2022-10-22T03:53:00;10.10;99.90
17483;DHT22;8858;52.308;20.994;2022-10-22T03:55:30;10.10;99.90
17483;DHT22;8858;52.308;20.994;2022-10-22T03:57:58;10.10;99.90
17483;DHT22;8858;52.308;20.994;2022-10-22T04:00:28;10.10;99.90
17483;DHT22;8858;52.308;20.994;2022-10-22T04:02:59;10.10;99.90
17483;DHT22;8858;52.308;20.994;2022-10-22T04:05:28;10.10;99.90
17483;DHT22;8858;52.308;20.994;2022-10-22T04:07:57;10.10;99.90
17483;DHT22;8858;52.308;20.994;2022-10-22T04:10:26;10.10;99.90
17483;DHT22;8858;52.308;20.994;2022-10-22T04:12:54;10.10;99.90
17483;DHT22;8858;52.308;20.994;2022-10-22T04:15:27;10.20;99.90
17483;DHT22;8858;52.308;20.994;2022-10-22T04:17:55;10.10;99.90
17483;DHT22;8858;52.308;20.994;2022-10-22T04:20:24;10.10;99.90
17483;DHT22;8858;52.308;20.994;2022-10-22T04:22:52;10.20;99.90
17483;DHT22;8858;52.308;20.994;2022-10-22T04:25:24;10.10;99.90
17483;DHT22;8858;52.308;20.994;2022-10-22T04:27:55;10.10;99.90
17483;DHT22;8858;52.308;20.994;2022-10-22T04:30:23;10.10;99.90
17483;DHT22;8858;52.308;20.994;2022-10-22T04:32:52;10.20;99.90
17483;DHT22;8858;52.308;20.994;2022-10-22T04:35:20;10.10;99.90
17483;DHT22;8858;52.308;20.994;2022-10-22T04:37:56;10.20;99.90
17483;DHT22;8858;52.308;20.994;2022-10-22T04:40:25;10.10;99.90
17483;DHT22;8858;52.308;20.994;2022-10-22T04:42:56;10.20;99.90
17483;DHT22;8858;52.308;20.994;2022-10-22T04:45:25;10.20;99.90
17483;DHT22;8858;52.308;20.994;2022-10-22T04:47:53;10.20;99.90
17483;DHT22;8858;52.308;20.994;2022-10-22T04:50:22;10.20;99.90
17483;DHT22;8858;52.308;20.994;2022-10-22T04:52:51;10.20;99.90
17483;DHT22;8858;52.308;20.994;2022-10-22T04:55:19;10.20;99.90
17483;DHT22;8858;52.308;20.994;2022-10-22T04:57:50;10.20;99.90
17483;DHT22;8858;52.308;20.994;2022-10-22T05:00:19;10.20;99.90
17483;DHT22;8858;52.308;20.994;2022-10-22T05:02:48;10.20;99.90
17483;DHT22;8858;52.308;20.994;2022-10-22T05:05:19;10.20;99.90
17483;DHT22;8858;52.308;20.994;2022-10-22T05:07:49;10.20;99.90
17483;DHT22;8858;52.308;20.994;2022-10-22T05:10:18;10.20;99.90
17483;DHT22;8858;52.308;20.994;2022-10-22T05:12:49;10.30;99.90
17483;DHT22;8858;52.308;20.994;2022-10-22T05:15:18;10.30;99.90
17483;DHT22;8858;52.308;20.994;2022-10-22T05:17:47;10.30;99.90
17483;DHT22;8858;52.308;20.994;2022-10-22T05:20:15;10.30;99.90
17483;DHT22;8858;52.308;20.994;2022-10-22T05:22:44;10.30;99.90
17483;DHT22;8858;52.308;20.994;2022-10-22T05:25:12;10.30;99.90
17483;DHT22;8858;52.308;20.994;2022-10-22T05:27:49;10.30;99.90
17483;DHT22;8858;52.308;20.994;2022-10-22T05:30:18;10.30;99.90
17483;DHT22;8858;52.308;20.994;2022-10-22T05:32:46;10.30;99.90
17483;DHT22;8858;52.308;20.994;2022-10-22T05:35:15;10.30;99.90
17483;DHT22;8858;52.308;20.994;2022-10-22T05:37:43;10.30;99.90
17483;DHT22;8858;52.308;20.994;2022-10-22T05:40:12;10.30;99.90
17483;DHT22;8858;52.308;20.994;2022-10-22T05:42:54;10.30;99.90
17483;DHT22;8858;52.308;20.994;2022-10-22T05:45:23;10.30;99.90
17483;DHT22;8858;52.308;20.994;2022-10-22T05:47:51;10.30;99.90
17483;DHT22;8858;52.308;20.994;2022-10-22T05:50:20;10.30;99.90
17483;DHT22;8858;52.308;20.994;2022-10-22T05:52:48;10.30;99.90
17483;DHT22;8858;52.308;20.994;2022-10-22T05:55:16;10.40;99.90
17483;DHT22;8858;52.308;20.994;2022-10-22T05:57:49;10.40;99.90
17483;DHT22;8858;52.308;20.994;2022-10-22T06:00:22;10.40;99.90
17483;DHT22;8858;52.308;20.994;2022-10-22T06:02:52;10.40;99.90
17483;DHT22;8858;52.308;20.994;2022-10-22T06:05:24;10.50;99.90
17483;DHT22;8858;52.308;20.994;2022-10-22T06:07:53;10.50;99.90
17483;DHT22;8858;52.308;20.994;2022-10-22T06:10:23;10.50;99.90
17483;DHT22;8858;52.308;20.994;2022-10-22T06:12:51;10.50;99.90
17483;DHT22;8858;52.308;20.994;2022-10-22T06:15:24;10.50;99.90
17483;DHT22;8858;52.308;20.994;2022-10-22T06:17:55;10.50;99.90
17483;DHT22;8858;52.308;20.994;2022-10-22T06:20:23;10.60;99.90
17483;DHT22;8858;52.308;20.994;2022-10-22T06:22:51;10.60;99.90
17483;DHT22;8858;52.308;20.994;2022-10-22T06:25:19;10.60;99.90
17483;DHT22;8858;52.308;20.994;2022-10-22T06:27:48;10.60;99.90
17483;DHT22;8858;52.308;20.994;2022-10-22T06:30:20;10.70;99.90
17483;DHT22;8858;52.308;20.994;2022-10-22T06:32:51;10.70;99.90
17483;DHT22;8858;52.308;20.994;2022-10-22T06:35:19;10.70;99.90
17483;DHT22;8858;52.308;20.994;2022-10-22T06:37:47;10.70;99.90
17483;DHT22;8858;52.308;20.994;2022-10-22T06:40:20;10.70;99.90
17483;DHT22;8858;52.308;20.994;2022-10-22T06:42:49;10.80;99.90
17483;DHT22;8858;52.308;20.994;2022-10-22T06:45:18;10.80;99.90
17483;DHT22;8858;52.308;20.994;2022-10-22T06:47:46;10.80;99.90
17483;DHT22;8858;52.308;20.994;2022-10-22T06:50:16;10.80;99.90
17483;DHT22;8858;52.308;20.994;2022-10-22T06:52:45;10.80;99.90
17483;DHT22;8858;52.308;20.994;2022-10-22T06:55:13;10.80;99.90
17483;DHT22;8858;52.308;20.994;2022-10-22T06:57:41;10.90;99.90
17483;DHT22;8858;52.308;20.994;2022-10-22T07:00:11;10.90;99.90
17483;DHT22;8858;52.308;20.994;2022-10-22T07:02:41;10.90;99.90
17483;DHT22;8858;52.308;20.994;2022-10-22T07:05:10;10.90;99.90
17483;DHT22;8858;52.308;20.994;2022-10-22T07:07:39;10.90;99.90
17483;DHT22;8858;52.308;20.994;2022-10-22T07:10:08;10.90;99.90
17483;DHT22;8858;52.308;20.994;2022-10-22T07:12:37;11.00;99.90
17483;DHT22;8858;52.308;20.994;2022-10-22T07:15:06;11.00;99.90
17483;DHT22;8858;52.308;20.994;2022-10-22T07:17:34;11.00;99.90
17483;DHT22;8858;52.308;20.994;2022-10-22T07:20:03;11.00;99.90
17483;DHT22;8858;52.308;20.994;2022-10-22T07:22:32;11.00;99.90
17483;DHT22;8858;52.308;20.994;2022-10-22T07:25:02;11.00;99.90
17483;DHT22;8858;52.308;20.994;2022-10-22T07:27:33;11.00;99.90
17483;DHT22;8858;52.308;20.994;2022-10-22T07:30:02;11.00;99.90
17483;DHT22;8858;52.308;20.994;2022-10-22T07:32:30;10.90;99.90
17483;DHT22;8858;52.308;20.994;2022-10-22T07:34:59;11.00;99.90
17483;DHT22;8858;52.308;20.994;2022-10-22T07:37:28;11.10;99.90
17483;DHT22;8858;52.308;20.994;2022-10-22T07:40:02;11.10;99.90
17483;DHT22;8858;52.308;20.994;2022-10-22T07:42:31;11.00;99.90
17483;DHT22;8858;52.308;20.994;2022-10-22T07:44:59;11.00;99.90
17483;DHT22;8858;52.308;20.994;2022-10-22T07:47:32;11.00;99.90
17483;DHT22;8858;52.308;20.994;2022-10-22T07:50:00;11.00;99.90
17483;DHT22;8858;52.308;20.994;2022-10-22T07:52:32;11.00;99.90
17483;DHT22;8858;52.308;20.994;2022-10-22T07:55:02;11.00;99.90
17483;DHT22;8858;52.308;20.994;2022-10-22T07:57:31;11.00;99.90
17483;DHT22;8858;52.308;20.994;2022-10-22T08:00:00;11.00;99.90
17483;DHT22;8858;52.308;20.994;2022-10-22T08:02:37;10.90;99.90
17483;DHT22;8858;52.308;20.994;2022-10-22T08:05:07;11.00;99.90
17483;DHT22;8858;52.308;20.994;2022-10-22T08:08:03;11.00;99.90
17483;DHT22;8858;52.308;20.994;2022-10-22T08:10:33;11.00;99.90
17483;DHT22;8858;52.308;20.994;2022-10-22T08:13:04;11.00;99.90
17483;DHT22;8858;52.308;20.994;2022-10-22T08:15:32;11.00;99.90
17483;DHT22;8858;52.308;20.994;2022-10-22T08:18:01;10.90;99.90
17483;DHT22;8858;52.308;20.994;2022-10-22T08:20:29;10.90;99.90
17483;DHT22;8858;52.308;20.994;2022-10-22T08:22:58;11.00;99.90
17483;DHT22;8858;52.308;20.994;2022-10-22T08:25:28;11.00;99.90
17483;DHT22;8858;52.308;20.994;2022-10-22T08:27:58;11.00;99.90
17483;DHT22;8858;52.308;20.994;2022-10-22T08:30:27;11.10;99.90
17483;DHT22;8858;52.308;20.994;2022-10-22T08:32:55;11.10;99.90
17483;DHT22;8858;52.308;20.994;2022-10-22T08:35:31;11.20;99.90
17483;DHT22;8858;52.308;20.994;2022-10-22T08:38:00;11.20;99.90
17483;DHT22;8858;52.308;20.994;2022-10-22T08:40:30;11.20;99.90
17483;DHT22;8858;52.308;20.994;2022-10-22T08:43:17;11.30;99.90
17483;DHT22;8858;52.308;20.994;2022-10-22T08:45:56;11.20;99.90
17483;DHT22;8858;52.308;20.994;2022-10-22T08:48:40;11.20;99.90
17483;DHT22;8858;52.308;20.994;2022-10-22T08:51:14;11.20;99.90
17483;DHT22;8858;52.308;20.994;2022-10-22T08:54:12;11.20;99.90
17483;DHT22;8858;52.308;20.994;2022-10-22T08:56:46;11.20;99.90
17483;DHT22;8858;52.308;20.994;2022-10-22T08:59:24;11.30;99.90
17483;DHT22;8858;52.308;20.994;2022-10-22T09:01:53;11.30;99.90
17483;DHT22;8858;52.308;20.994;2022-10-22T09:04:27;11.30;99.90
17483;DHT22;8858;52.308;20.994;2022-10-22T09:06:59;11.30;99.90
17483;DHT22;8858;52.308;20.994;2022-10-22T09:09:32;11.40;99.90
17483;DHT22;8858;52.308;20.994;2022-10-22T09:12:05;11.40;99.90
17483;DHT22;8858;52.308;20.994;2022-10-22T09:14:46;11.40;99.90
17483;DHT22;8858;52.308;20.994;2022-10-22T09:17:22;11.40;99.90
17483;DHT22;8858;52.308;20.994;2022-10-22T09:20:02;11.40;99.90
17483;DHT22;8858;52.308;20.994;2022-10-22T09:22:36;11.40;99.90
17483;DHT22;8858;52.308;20.994;2022-10-22T09:25:18;11.40;99.90
17483;DHT22;8858;52.308;20.994;2022-10-22T09:27:49;11.50;99.90
17483;DHT22;8858;52.308;20.994;2022-10-22T09:30:22;11.50;99.90
17483;DHT22;8858;52.308;20.994;2022-10-22T09:32:54;11.50;99.90
17483;DHT22;8858;52.308;20.994;2022-10-22T09:35:27;11.40;99.90
17483;DHT22;8858;52.308;20.994;2022-10-22T09:38:06;11.40;99.90
17483;DHT22;8858;52.308;20.994;2022-10-22T09:40:42;11.40;99.90
17483;DHT22;8858;52.308;20.994;2022-10-22T09:43:14;11.50;99.90
17483;DHT22;8858;52.308;20.994;2022-10-22T09:45:45;11.50;99.90
17483;DHT22;8858;52.308;20.994;2022-10-22T09:48:19;11.50;99.90
17483;DHT22;8858;52.308;20.994;2022-10-22T09:50:48;11.50;99.90
17483;DHT22;8858;52.308;20.994;2022-10-22T09:53:19;11.50;99.90
17483;DHT22;8858;52.308;20.994;2022-10-22T09:55:51;11.60;99.90
17483;DHT22;8858;52.308;20.994;2022-10-22T09:58:22;11.60;99.90
17483;DHT22;8858;52.308;20.994;2022-10-22T10:00:54;11.60;99.90
17483;DHT22;8858;52.308;20.994;2022-10-22T10:03:28;11.60;99.90
17483;DHT22;8858;52.308;20.994;2022-10-22T10:06:00;11.60;99.90
17483;DHT22;8858;52.308;20.994;2022-10-22T10:08:33;11.60;99.90
17483;DHT22;8858;52.308;20.994;2022-10-22T10:11:08;11.60;99.90
17483;DHT22;8858;52.308;20.994;2022-10-22T10:13:46;11.50;99.90
17483;DHT22;8858;52.308;20.994;2022-10-22T10:16:35;11.50;99.90
17483;DHT22;8858;52.308;20.994;2022-10-22T10:19:37;11.60;99.90
17483;DHT22;8858;52.308;20.994;2022-10-22T10:22:13;11.60;99.90
17483;DHT22;8858;52.308;20.994;2022-10-22T10:25:02;11.60;99.90
17483;DHT22;8858;52.308;20.994;2022-10-22T10:27:40;11.60;99.90
17483;DHT22;8858;52.308;20.994;2022-10-22T10:30:13;11.60;99.90
17483;DHT22;8858;52.308;20.994;2022-10-22T10:33:08;11.60;99.90
17483;DHT22;8858;52.308;20.994;2022-10-22T10:35:45;11.60;99.90
17483;DHT22;8858;52.308;20.994;2022-10-22T10:38:28;11.60;99.90
17483;DHT22;8858;52.308;20.994;2022-10-22T10:41:06;11.60;99.90
17483;DHT22;8858;52.308;20.994;2022-10-22T10:43:56;11.60;99.90
17483;DHT22;8858;52.308;20.994;2022-10-22T10:46:34;11.60;99.90
17483;DHT22;8858;52.308;20.994;2022-10-22T10:49:10;11.70;99.90
17483;DHT22;8858;52.308;20.994;2022-10-22T10:51:47;11.70;99.90
17483;DHT22;8858;52.308;20.994;2022-10-22T10:54:38;11.70;99.90
17483;DHT22;8858;52.308;20.994;2022-10-22T10:57:17;11.80;99.90
17483;DHT22;8858;52.308;20.994;2022-10-22T11:00:03;11.80;99.90
17483;DHT22;8858;52.308;20.994;2022-10-22T11:05:53;11.90;99.90
17483;DHT22;8858;52.308;20.994;2022-10-22T11:08:26;12.00;99.90
17483;DHT22;8858;52.308;20.994;2022-10-22T11:10:58;12.00;99.90
17483;DHT22;8858;52.308;20.994;2022-10-22T11:13:32;12.00;99.90
17483;DHT22;8858;52.308;20.994;2022-10-22T11:16:11;11.90;99.90
17483;DHT22;8858;52.308;20.994;2022-10-22T11:18:45;11.90;99.90
17483;DHT22;8858;52.308;20.994;2022-10-22T11:21:23;11.90;99.90
17483;DHT22;8858;52.308;20.994;2022-10-22T11:23:59;11.90;99.90
17483;DHT22;8858;52.308;20.994;2022-10-22T11:26:35;12.00;99.90
17483;DHT22;8858;52.308;20.994;2022-10-22T11:29:10;11.90;99.90
17483;DHT22;8858;52.308;20.994;2022-10-22T11:31:40;11.90;99.90
17483;DHT22;8858;52.308;20.994;2022-10-22T11:34:14;12.00;99.90
17483;DHT22;8858;52.308;20.994;2022-10-22T11:37:02;12.00;99.90
17483;DHT22;8858;52.308;20.994;2022-10-22T11:39:37;12.00;99.90
17483;DHT22;8858;52.308;20.994;2022-10-22T11:42:10;12.00;99.90
17483;DHT22;8858;52.308;20.994;2022-10-22T11:44:48;12.00;99.90
17483;DHT22;8858;52.308;20.994;2022-10-22T11:47:27;12.00;99.90
17483;DHT22;8858;52.308;20.994;2022-10-22T11:49:58;12.00;99.90
17483;DHT22;8858;52.308;20.994;2022-10-22T11:52:40;12.00;99.90
17483;DHT22;8858;52.308;20.994;2022-10-22T11:55:45;12.00;99.90
17483;DHT22;8858;52.308;20.994;2022-10-22T11:58:30;12.10;99.90
17483;DHT22;8858;52.308;20.994;2022-10-22T12:01:21;12.20;99.90
17483;DHT22;8858;52.308;20.994;2022-10-22T12:03:52;12.20;99.90
17483;DHT22;8858;52.308;20.994;2022-10-22T12:06:22;12.20;99.90
17483;DHT22;8858;52.308;20.994;2022-10-22T12:09:01;12.20;99.90
17483;DHT22;8858;52.308;20.994;2022-10-22T12:11:35;12.20;99.90
17483;DHT22;8858;52.308;20.994;2022-10-22T12:14:15;12.20;99.90
17483;DHT22;8858;52.308;20.994;2022-10-22T12:16:47;12.30;99.90
17483;DHT22;8858;52.308;20.994;2022-10-22T12:19:27;12.30;99.90
17483;DHT22;8858;52.308;20.994;2022-10-22T12:21:59;12.30;99.90
17483;DHT22;8858;52.308;20.994;2022-10-22T12:24:34;12.30;99.90
17483;DHT22;8858;52.308;20.994;2022-10-22T12:27:15;12.30;99.90
17483;DHT22;8858;52.308;20.994;2022-10-22T12:29:52;12.40;99.90
17483;DHT22;8858;52.308;20.994;2022-10-22T12:32:20;12.40;99.90
17483;DHT22;8858;52.308;20.994;2022-10-22T12:34:51;12.50;99.90
17483;DHT22;8858;52.308;20.994;2022-10-22T12:37:20;12.50;99.90
17483;DHT22;8858;52.308;20.994;2022-10-22T12:39:50;12.50;99.90
17483;DHT22;8858;52.308;20.994;2022-10-22T12:42:19;12.50;99.90
17483;DHT22;8858;52.308;20.994;2022-10-22T12:44:54;12.60;99.90
17483;DHT22;8858;52.308;20.994;2022-10-22T12:47:22;12.60;99.90
17483;DHT22;8858;52.308;20.994;2022-10-22T12:49:55;12.60;99.90
17483;DHT22;8858;52.308;20.994;2022-10-22T12:52:30;12.70;99.90
17483;DHT22;8858;52.308;20.994;2022-10-22T12:55:04;12.70;99.90
17483;DHT22;8858;52.308;20.994;2022-10-22T12:57:36;12.70;99.90
17483;DHT22;8858;52.308;20.994;2022-10-22T13:00:20;12.80;99.90
17483;DHT22;8858;52.308;20.994;2022-10-22T13:02:49;12.80;99.90
17483;DHT22;8858;52.308;20.994;2022-10-22T13:05:24;12.80;99.90
17483;DHT22;8858;52.308;20.994;2022-10-22T13:08:02;12.80;99.90
17483;DHT22;8858;52.308;20.994;2022-10-22T13:10:35;12.80;99.90
17483;DHT22;8858;52.308;20.994;2022-10-22T13:13:04;12.80;99.90
17483;DHT22;8858;52.308;20.994;2022-10-22T13:15:38;12.80;99.90
17483;DHT22;8858;52.308;20.994;2022-10-22T13:18:16;12.80;99.90
17483;DHT22;8858;52.308;20.994;2022-10-22T13:20:52;12.80;99.90
17483;DHT22;8858;52.308;20.994;2022-10-22T13:23:22;12.80;99.90
17483;DHT22;8858;52.308;20.994;2022-10-22T13:25:58;12.90;99.90
17483;DHT22;8858;52.308;20.994;2022-10-22T13:28:29;12.80;99.90
17483;DHT22;8858;52.308;20.994;2022-10-22T13:31:01;12.90;99.90
17483;DHT22;8858;52.308;20.994;2022-10-22T13:33:33;12.90;99.90
17483;DHT22;8858;52.308;20.994;2022-10-22T13:36:11;13.00;99.90
17483;DHT22;8858;52.308;20.994;2022-10-22T13:38:41;13.00;99.90
17483;DHT22;8858;52.308;20.994;2022-10-22T13:41:22;12.90;99.90
17483;DHT22;8858;52.308;20.994;2022-10-22T13:43:52;12.90;99.90
17483;DHT22;8858;52.308;20.994;2022-10-22T13:46:24;12.90;99.90
17483;DHT22;8858;52.308;20.994;2022-10-22T13:48:54;12.90;99.90
17483;DHT22;8858;52.308;20.994;2022-10-22T13:51:29;12.90;99.90
17483;DHT22;8858;52.308;20.994;2022-10-22T13:54:02;12.80;99.90
17483;DHT22;8858;52.308;20.994;2022-10-22T13:56:39;12.90;99.90
17483;DHT22;8858;52.308;20.994;2022-10-22T13:59:11;12.80;99.90
17483;DHT22;8858;52.308;20.994;2022-10-22T14:01:46;12.90;99.90
17483;DHT22;8858;52.308;20.994;2022-10-22T14:04:14;12.90;99.90
17483;DHT22;8858;52.308;20.994;2022-10-22T14:06:43;12.90;99.90
17483;DHT22;8858;52.308;20.994;2022-10-22T14:09:14;12.90;99.90
17483;DHT22;8858;52.308;20.994;2022-10-22T14:11:45;12.90;99.90
17483;DHT22;8858;52.308;20.994;2022-10-22T14:14:15;12.80;99.90
17483;DHT22;8858;52.308;20.994;2022-10-22T14:16:47;12.80;99.90
17483;DHT22;8858;52.308;20.994;2022-10-22T14:19:16;12.80;99.90
17483;DHT22;8858;52.308;20.994;2022-10-22T14:21:45;12.70;99.90
17483;DHT22;8858;52.308;20.994;2022-10-22T14:24:18;12.80;99.90
17483;DHT22;8858;52.308;20.994;2022-10-22T14:26:48;12.80;99.90
17483;DHT22;8858;52.308;20.994;2022-10-22T14:29:17;12.80;99.90
17483;DHT22;8858;52.308;20.994;2022-10-22T14:31:46;12.80;99.90
17483;DHT22;8858;52.308;20.994;2022-10-22T14:34:15;12.80;99.90
17483;DHT22;8858;52.308;20.994;2022-10-22T14:36:44;12.80;99.90
17483;DHT22;8858;52.308;20.994;2022-10-22T14:39:14;12.70;99.90
17483;DHT22;8858;52.308;20.994;2022-10-22T14:41:44;12.70;99.90
17483;DHT22;8858;52.308;20.994;2022-10-22T14:44:13;12.70;99.90
17483;DHT22;8858;52.308;20.994;2022-10-22T14:46:42;12.70;99.90
17483;DHT22;8858;52.308;20.994;2022-10-22T14:49:12;12.70;99.90
17483;DHT22;8858;52.308;20.994;2022-10-22T14:51:42;12.70;99.90
17483;DHT22;8858;52.308;20.994;2022-10-22T14:54:11;12.70;99.90
17483;DHT22;8858;52.308;20.994;2022-10-22T14:56:39;12.70;99.90
17483;DHT22;8858;52.308;20.994;2022-10-22T14:59:07;12.70;99.90
17483;DHT22;8858;52.308;20.994;2022-10-22T15:01:37;12.70;99.90
17483;DHT22;8858;52.308;20.994;2022-10-22T15:04:11;12.70;99.90
17483;DHT22;8858;52.308;20.994;2022-10-22T15:06:40;12.70;99.90
17483;DHT22;8858;52.308;20.994;2022-10-22T15:09:08;12.70;99.90
17483;DHT22;8858;52.308;20.994;2022-10-22T15:11:37;12.80;99.90
17483;DHT22;8858;52.308;20.994;2022-10-22T15:14:06;12.80;99.90
17483;DHT22;8858;52.308;20.994;2022-10-22T15:16:36;12.80;99.90
17483;DHT22;8858;52.308;20.994;2022-10-22T15:19:04;12.80;99.90
17483;DHT22;8858;52.308;20.994;2022-10-22T15:21:33;12.80;99.90
17483;DHT22;8858;52.308;20.994;2022-10-22T15:24:01;12.80;99.90
17483;DHT22;8858;52.308;20.994;2022-10-22T15:26:30;12.80;99.90
17483;DHT22;8858;52.308;20.994;2022-10-22T15:29:01;12.80;99.90
17483;DHT22;8858;52.308;20.994;2022-10-22T15:31:48;12.80;99.90
17483;DHT22;8858;52.308;20.994;2022-10-22T15:34:19;12.70;99.90
17483;DHT22;8858;52.308;20.994;2022-10-22T15:36:49;12.70;99.90
17483;DHT22;8858;52.308;20.994;2022-10-22T15:39:18;12.70;99.90
17483;DHT22;8858;52.308;20.994;2022-10-22T15:41:49;12.70;99.90
17483;DHT22;8858;52.308;20.994;2022-10-22T15:44:20;12.70;99.90
17483;DHT22;8858;52.308;20.994;2022-10-22T15:46:50;12.70;99.90
17483;DHT22;8858;52.308;20.994;2022-10-22T15:49:20;12.70;99.90
17483;DHT22;8858;52.308;20.994;2022-10-22T15:51:53;12.70;99.90
17483;DHT22;8858;52.308;20.994;2022-10-22T15:54:24;12.70;99.90
17483;DHT22;8858;52.308;20.994;2022-10-22T15:56:54;12.70;99.90
17483;DHT22;8858;52.308;20.994;2022-10-22T15:59:22;12.70;99.90
17483;DHT22;8858;52.308;20.994;2022-10-22T16:01:52;12.70;99.90
17483;DHT22;8858;52.308;20.994;2022-10-22T16:04:21;12.70;99.90
17483;DHT22;8858;52.308;20.994;2022-10-22T16:06:50;12.60;99.90
17483;DHT22;8858;52.308;20.994;2022-10-22T16:09:21;12.70;99.90
17483;DHT22;8858;52.308;20.994;2022-10-22T16:11:53;12.60;99.90
17483;DHT22;8858;52.308;20.994;2022-10-22T16:14:23;12.60;99.90